createdAt,value
2023-02-17T00:02:38.165Z,39.15
2023-02-17T00:07:42.835Z,40.10
2023-02-17T00:12:47.327Z,38.15
2023-02-17T00:22:57.453Z,37.58
2023-02-17T00:28:01.654Z,38.45
2023-02-17T00:38:12.271Z,35.47
2023-02-17T00:43:16.660Z,39.63
2023-02-17T00:48:22.961Z,37.35
2023-02-17T00:53:27.591Z,36.10
2023-02-17T00:58:32.129Z,36.40
2023-02-17T01:08:42.313Z,36.55
2023-02-17T01:13:46.772Z,37.13
2023-02-17T01:18:53.082Z,35.08
2023-02-17T01:24:02.069Z,35.70
2023-02-17T01:29:08.366Z,35.97
2023-02-17T01:34:14.139Z,34.45
2023-02-17T01:39:19.984Z,34.33
2023-02-17T01:44:26.441Z,35.00
2023-02-17T01:49:37.294Z,36.58
2023-02-17T01:54:46.735Z,34.70
2023-02-17T01:59:51.439Z,37.45
2023-02-17T02:10:01.933Z,33.95
2023-02-17T02:15:10.795Z,34.38
2023-02-17T02:20:53.540Z,33.00
2023-02-17T02:26:46.747Z,34.65
2023-02-17T02:32:08.095Z,32.83
2023-02-17T02:37:19.162Z,34.47
2023-02-17T02:42:25.718Z,33.22
2023-02-17T02:47:50.302Z,34.97
2023-02-17T02:53:25.235Z,32.88
2023-02-17T02:58:41.799Z,33.10
2023-02-17T03:03:52.748Z,35.40
2023-02-17T03:09:05.588Z,34.15
2023-02-17T03:14:12.684Z,32.63
2023-02-17T03:19:21.681Z,33.22
2023-02-17T03:24:28.093Z,34.25
2023-02-17T03:29:33.242Z,31.92
2023-02-17T03:34:37.961Z,33.22
2023-02-17T03:44:48.104Z,30.27
2023-02-17T03:49:53.085Z,31.05
2023-02-17T03:54:59.009Z,29.55
2023-02-17T04:00:04.623Z,30.65
2023-02-17T04:05:17.263Z,30.40
2023-02-17T04:10:23.312Z,32.10
2023-02-17T04:15:27.897Z,30.00
2023-02-17T04:20:32.156Z,30.42
2023-02-17T04:25:39.313Z,27.23
2023-02-17T04:30:46.891Z,31.05
2023-02-17T04:35:51.495Z,26.90
2023-02-17T04:40:59.534Z,27.58
2023-02-17T04:46:04.562Z,29.67
2023-02-17T04:51:09.404Z,31.33
2023-02-17T04:56:15.186Z,30.33
2023-02-17T05:01:19.748Z,30.05
2023-02-17T05:06:24.187Z,28.98
2023-02-17T05:11:31.711Z,32.58
2023-02-17T05:16:36.009Z,31.55
2023-02-17T05:21:40.452Z,32.72
2023-02-17T05:26:46.228Z,32.88
2023-02-17T05:31:51.161Z,32.60
2023-02-17T05:42:01.201Z,34.22
2023-02-17T05:47:06.038Z,32.58
2023-02-17T05:52:10.801Z,32.13
2023-02-17T05:57:16.731Z,32.63
2023-02-17T06:02:21.213Z,31.58
2023-02-17T06:07:25.790Z,32.50
2023-02-17T06:12:31.574Z,30.35
2023-02-17T06:17:35.792Z,31.10
2023-02-17T06:22:40.424Z,32.25
2023-02-17T06:32:51.056Z,29.45
2023-02-17T06:43:01.140Z,28.02
2023-02-17T06:48:05.668Z,31.45
2023-02-17T06:53:10.049Z,29.92
2023-02-17T06:58:16.157Z,29.48
2023-02-17T07:03:20.512Z,30.77
2023-02-17T07:08:24.853Z,32.50
2023-02-17T07:13:30.590Z,30.10
2023-02-17T07:18:35.420Z,30.17
2023-02-17T07:23:40.046Z,32.13
2023-02-17T07:33:50.210Z,36.13
2023-02-17T07:38:54.961Z,29.98
2023-02-17T07:44:01.174Z,27.55
2023-02-17T07:49:05.982Z,29.95
2023-02-17T07:54:10.236Z,27.65
2023-02-17T07:59:16.524Z,29.08
2023-02-17T08:04:20.985Z,28.00
2023-02-17T08:09:42.873Z,28.52
2023-02-17T08:14:48.538Z,29.45
2023-02-17T08:19:52.788Z,29.33
2023-02-17T08:24:57.267Z,30.70
2023-02-17T08:30:03.618Z,29.02
2023-02-17T08:35:09.298Z,27.30
2023-02-17T08:40:13.776Z,27.77
2023-02-17T08:45:19.862Z,28.75
2023-02-17T08:50:24.735Z,28.45
2023-02-17T08:55:33.494Z,26.52
2023-02-17T09:00:46.566Z,27.38
2023-02-17T09:05:51.481Z,28.30
2023-02-17T09:21:09.556Z,27.35
2023-02-17T09:26:16.375Z,27.05
2023-02-17T09:31:25.790Z,26.77
2023-02-17T09:36:34.093Z,26.83
2023-02-17T09:41:44.971Z,26.10
2023-02-17T09:47:03.351Z,24.55
2023-02-17T09:52:15.314Z,24.35
2023-02-17T09:57:25.702Z,24.50
2023-02-17T10:02:41.432Z,24.30
2023-02-17T10:07:51.132Z,25.77
2023-02-17T10:12:59.179Z,24.45
2023-02-17T10:18:12.651Z,23.63
2023-02-17T10:23:20.625Z,24.50
2023-02-17T10:28:39.048Z,22.77
2023-02-17T10:33:55.343Z,22.20
2023-02-17T10:39:06.195Z,21.52
2023-02-17T10:44:17.996Z,22.42
2023-02-17T10:49:30.847Z,21.30
2023-02-17T10:54:39.718Z,19.23
2023-02-17T10:59:47.032Z,18.98
2023-02-17T11:04:55.740Z,20.65
2023-02-17T11:10:04.271Z,20.00
2023-02-17T11:15:19.232Z,18.52
2023-02-17T11:20:35.766Z,17.98
2023-02-17T11:25:40.085Z,16.65
2023-02-17T11:30:54.104Z,17.10
2023-02-17T11:36:00.572Z,19.05
2023-02-17T11:41:07.670Z,18.10
2023-02-17T11:46:29.574Z,18.60
2023-02-17T11:51:55.022Z,18.63
2023-02-17T11:57:18.434Z,22.25
2023-02-17T12:02:45.565Z,18.77
2023-02-17T12:08:07.059Z,20.58
2023-02-17T12:13:28.880Z,19.58
2023-02-17T12:18:49.026Z,18.90
2023-02-17T12:24:21.582Z,20.10
2023-02-17T12:29:41.496Z,18.67
2023-02-17T12:34:53.414Z,17.90
2023-02-17T12:40:04.099Z,18.17
2023-02-17T12:45:18.563Z,20.20
2023-02-17T12:50:28.426Z,19.30
2023-02-17T12:55:46.950Z,19.60
2023-02-17T13:00:56.276Z,20.25
2023-02-17T13:06:08.003Z,20.23
2023-02-17T13:11:29.163Z,20.33
2023-02-17T13:16:44.938Z,20.85
2023-02-17T13:21:56.014Z,22.25
2023-02-17T13:27:12.902Z,20.55
2023-02-17T13:32:29.851Z,19.75
2023-02-17T13:37:44.050Z,21.92
2023-02-17T13:42:51.207Z,21.20
2023-02-17T13:48:00.587Z,21.65
2023-02-17T13:53:23.616Z,21.10
2023-02-17T13:58:32.310Z,23.55
2023-02-17T14:03:44.338Z,22.42
2023-02-17T14:08:49.060Z,21.63
2023-02-17T14:13:57.999Z,19.70
2023-02-17T14:19:05.684Z,20.88
2023-02-17T14:24:29.293Z,19.90
2023-02-17T14:29:44.413Z,19.65
2023-02-17T14:34:48.868Z,17.75
2023-02-17T14:39:53.400Z,18.25
2023-02-17T14:44:59.344Z,17.23
2023-02-17T14:50:05.200Z,17.45
2023-02-17T14:55:17.533Z,18.23
2023-02-17T15:00:23.565Z,16.00
2023-02-17T15:05:28.107Z,16.58
2023-02-17T15:10:32.540Z,16.15
2023-02-17T15:15:39.313Z,16.05
2023-02-17T15:20:45.683Z,14.95
2023-02-17T15:25:50.667Z,15.18
2023-02-17T15:30:57.638Z,16.20
2023-02-17T15:36:02.247Z,15.02
2023-02-17T15:41:12.497Z,15.68
2023-02-17T15:46:21.117Z,13.77
2023-02-17T15:51:25.707Z,14.13
2023-02-17T15:56:43.491Z,14.25
2023-02-17T16:01:50.824Z,13.80
2023-02-17T16:06:55.304Z,13.93
2023-02-17T16:12:00.578Z,14.23
2023-02-17T16:17:12.397Z,15.20
2023-02-17T16:22:16.678Z,16.20
2023-02-17T16:27:21.143Z,16.15
2023-02-17T16:32:26.797Z,16.73
2023-02-17T16:37:31.551Z,15.85
2023-02-17T16:42:35.843Z,18.45
2023-02-17T16:47:41.829Z,18.45
2023-02-17T16:52:46.894Z,18.42
2023-02-17T16:57:52.118Z,18.50
2023-02-17T17:02:58.534Z,18.27
2023-02-17T17:08:02.777Z,17.92
2023-02-17T17:13:07.519Z,19.25
2023-02-17T17:18:22.240Z,18.80
2023-02-17T17:23:26.610Z,18.58
2023-02-17T17:28:30.926Z,18.35
2023-02-17T17:33:36.705Z,16.55
2023-02-17T17:38:40.935Z,17.55
2023-02-17T17:43:46.991Z,18.10
2023-02-17T17:48:53.548Z,17.80
2023-02-17T17:53:58.870Z,18.77
2023-02-17T17:59:04.815Z,18.35
2023-02-17T18:04:10.484Z,17.77
2023-02-17T18:09:31.222Z,21.60
2023-02-17T18:14:40.064Z,18.25
2023-02-17T18:19:47.404Z,16.65
2023-02-17T18:24:52.001Z,18.70
2023-02-17T18:29:56.706Z,19.15
2023-02-17T18:35:02.919Z,18.65
2023-02-17T18:40:12.495Z,18.23
2023-02-17T18:45:18.296Z,20.00
2023-02-17T18:50:24.278Z,19.77
2023-02-17T18:55:29.482Z,19.02
2023-02-17T19:00:34.075Z,20.02
2023-02-17T19:05:39.863Z,20.58
2023-02-17T19:10:45.904Z,18.50
2023-02-17T19:15:50.370Z,18.55
2023-02-17T19:20:57.055Z,18.63
2023-02-17T19:26:02.915Z,16.80
2023-02-17T19:31:09.161Z,17.40
2023-02-17T19:36:18.608Z,15.27
2023-02-17T19:41:23.133Z,15.65
2023-02-17T19:46:28.320Z,16.23
2023-02-17T19:51:34.728Z,15.82
2023-02-17T19:56:39.992Z,14.95
2023-02-17T20:06:50.100Z,16.13
2023-02-17T20:11:54.343Z,15.30
2023-02-17T20:17:00.662Z,14.40
2023-02-17T20:22:06.678Z,15.95
2023-02-17T20:27:11.509Z,15.20
2023-02-17T20:32:16.198Z,15.45
2023-02-17T20:37:22.370Z,14.48
2023-02-17T20:42:26.989Z,15.90
2023-02-17T20:47:31.454Z,14.52
2023-02-17T20:52:37.359Z,16.63
2023-02-17T20:57:42.259Z,17.23
2023-02-17T21:02:47.059Z,14.80
2023-02-17T21:12:56.609Z,13.95
2023-02-17T21:18:01.005Z,12.68
2023-02-17T21:23:06.890Z,12.25
2023-02-17T21:28:11.312Z,11.50
2023-02-17T21:33:15.819Z,11.90
2023-02-17T21:38:22.796Z,11.40
2023-02-17T21:43:44.622Z,11.18
2023-02-17T21:48:49.075Z,11.00
2023-02-17T21:53:55.185Z,10.38
2023-02-17T21:58:59.734Z,9.68
2023-02-17T22:04:04.305Z,8.57
2023-02-17T22:09:12.908Z,8.18
2023-02-17T22:14:19.367Z,7.10
2023-02-17T22:19:25.750Z,6.38
2023-02-17T22:24:31.513Z,6.75
2023-02-17T22:29:35.671Z,6.40
2023-02-17T22:34:40.347Z,6.70
2023-02-17T22:39:45.884Z,7.43
2023-02-17T22:44:50.944Z,7.10
2023-02-17T22:49:55.373Z,7.25
2023-02-17T22:55:01.170Z,8.73
2023-02-17T23:00:07.860Z,6.63
2023-02-17T23:05:12.247Z,7.72
2023-02-17T23:10:18.022Z,6.57
2023-02-17T23:15:39.127Z,7.50
2023-02-17T23:20:46.885Z,6.45
2023-02-17T23:25:56.382Z,9.88
2023-02-17T23:31:00.787Z,4.50
2023-02-17T23:36:05.984Z,6.13
2023-02-17T23:41:12.591Z,4.22
2023-02-17T23:46:17.098Z,3.17
2023-02-17T23:51:21.272Z,2.70
2023-02-17T23:56:32.619Z,2.45
